»·PEaware :: UAL699 KPHX-KDEN

UAL699 :: KPHX-KDEN

FLIGHT INFORMATION

Flight Status: Arrived
Operator:
United Airlines
More flights by this operator :: More flights under this callsign
Pilot: Dominic D. (3716)
Aircraft: AIRBUS A319
(A319)
More flights by this aircraft type
Origin: KPHX Phoenix Sky Harbor Intl
United States
Destination: KDEN Denver Intl
United States
More flights between these airports :: More routes between these airports
Route: MRBIL1 YOOPR SHNPS TBARR1
File this flight plan on PilotEdge
Remarks:
Altitude:
(Current/Filed)
37,000ft
Speed:
(Current/Filed)
320kts
Departed: 29-Aug-20 09:37 AM
Arrived: 29-Aug-20 11:03 AM
Distance/Time
Traveled:
522nm/1:26
Distance/Time
To Go:
Arrived

Flight Plot

Page will automatically refresh every two minutes.

Flight plan parsing failed; only flown route is shown


Map Options




Map Legend


Flown Route
Filed Route
Departure Airport
Arrival Airport
Navaid (VOR, NDB)
Fix

Horizontal Profiles

Position Reports

Time Latitude Longitude Heading Altitude Ground
Speed
29-Aug-20 09:08 33.434423 -112.013279 290 1124ft 0kts
29-Aug-20 09:09 33.434423 -112.013279 290 1124ft 0kts
29-Aug-20 09:10 33.434423 -112.013279 290 1124ft 0kts
29-Aug-20 09:11 33.434423 -112.013279 290 1124ft 0kts
29-Aug-20 09:12 33.434423 -112.013279 290 1124ft 0kts
29-Aug-20 09:13 33.434423 -112.013279 290 1124ft 0kts
29-Aug-20 09:14 33.434423 -112.013279 290 1124ft 0kts
29-Aug-20 09:15 33.434423 -112.013279 290 1124ft 0kts
29-Aug-20 09:16 33.434423 -112.013279 290 1124ft 0kts
29-Aug-20 09:17 33.434423 -112.013279 290 1124ft 0kts
29-Aug-20 09:18 33.434423 -112.013279 290 1124ft 0kts
29-Aug-20 09:19 33.434423 -112.013279 290 1124ft 0kts
29-Aug-20 09:20 33.434423 -112.013279 290 1124ft 0kts
29-Aug-20 09:21 33.434423 -112.013279 290 1124ft 0kts
29-Aug-20 09:21 33.434423 -112.013279 290 1124ft 0kts
29-Aug-20 09:23 33.434423 -112.013279 290 1124ft 0kts
29-Aug-20 09:23 33.434423 -112.013279 290 1124ft 0kts
29-Aug-20 09:24 33.434423 -112.013279 290 1124ft 0kts
29-Aug-20 09:25 33.434423 -112.013279 290 1124ft 0kts
29-Aug-20 09:27 33.434423 -112.013279 290 1124ft 0kts
29-Aug-20 09:27 33.434423 -112.013279 290 1124ft 0kts
29-Aug-20 09:28 33.434358 -112.013067 290 1125ft 4kts
29-Aug-20 09:29 33.434282 -112.012818 290 1125ft 0kts
29-Aug-20 09:30 33.434282 -112.012818 290 1125ft 0kts
29-Aug-20 09:31 33.434282 -112.012818 290 1125ft 0kts
29-Aug-20 09:32 33.433869 -112.012441 143 1126ft 3kts
29-Aug-20 09:33 33.432868 -112.014356 270 1124ft 15kts
29-Aug-20 09:34 33.432873 -112.020870 270 1118ft 22kts
29-Aug-20 09:35 33.432241 -112.026920 181 1114ft 13kts
29-Aug-20 09:36 33.431059 -112.009187 89 1143ft 168kts
29-Aug-20 09:37 33.433126 -111.950946 86 3717ft 194kts
29-Aug-20 09:38 33.438720 -111.875886 65 5662ft 261kts
29-Aug-20 09:39 33.507532 -111.847079 3 8587ft 289kts
29-Aug-20 09:40 33.590483 -111.841402 3 11042ft 324kts
29-Aug-20 09:41 33.684057 -111.826602 14 13752ft 346kts
29-Aug-20 09:42 33.777770 -111.795249 19 16584ft 355kts
29-Aug-20 09:43 33.861489 -111.730466 35 19105ft 367kts
29-Aug-20 09:44 33.943538 -111.654599 34 21102ft 378kts
29-Aug-20 09:45 34.029553 -111.579434 28 22957ft 386kts
29-Aug-20 09:46 34.122129 -111.508615 28 24769ft 399kts
29-Aug-20 09:47 34.217255 -111.435754 27 26356ft 413kts
29-Aug-20 09:48 34.315428 -111.360079 27 27762ft 426kts
29-Aug-20 09:49 34.416898 -111.281174 27 28976ft 439kts
29-Aug-20 09:50 34.519421 -111.201498 27 30463ft 439kts
29-Aug-20 09:51 34.623563 -111.120970 25 31400ft 449kts
29-Aug-20 09:52 34.733909 -111.048055 23 32284ft 456kts
29-Aug-20 09:53 34.846258 -110.974498 23 33140ft 464kts
29-Aug-20 09:54 34.957679 -110.901043 23 34643ft 451kts
29-Aug-20 09:55 35.069147 -110.827488 23 35116ft 463kts
29-Aug-20 09:56 35.183146 -110.752207 22 35785ft 467kts
29-Aug-20 09:57 35.295564 -110.677511 22 36965ft 454kts
29-Aug-20 09:58 35.407276 -110.603099 23 37193ft 463kts
29-Aug-20 09:59 35.521890 -110.526396 23 37196ft 478kts
29-Aug-20 10:00 35.638298 -110.442657 31 37196ft 493kts
29-Aug-20 10:01 35.740200 -110.327978 44 37193ft 500kts
29-Aug-20 10:02 35.834697 -110.202197 44 37195ft 500kts
29-Aug-20 10:03 35.929384 -110.077102 43 37205ft 500kts
29-Aug-20 10:04 36.024151 -109.951764 43 37259ft 500kts
29-Aug-20 10:05 36.119267 -109.825564 43 37315ft 499kts
29-Aug-20 10:06 36.213916 -109.700080 43 37329ft 499kts
29-Aug-20 10:07 36.308087 -109.574191 43 37330ft 499kts
29-Aug-20 10:08 36.402293 -109.447672 43 37330ft 499kts
29-Aug-20 10:09 36.496479 -109.320606 44 37328ft 499kts
29-Aug-20 10:10 36.590191 -109.193306 44 37317ft 499kts
29-Aug-20 10:11 36.683793 -109.066092 44 37283ft 496kts
29-Aug-20 10:12 36.776370 -108.939838 44 37269ft 493kts
29-Aug-20 10:13 36.868796 -108.813299 44 37269ft 493kts
29-Aug-20 10:14 36.960717 -108.686967 44 37269ft 493kts
29-Aug-20 10:15 37.053352 -108.559161 44 37268ft 498kts
29-Aug-20 10:16 37.146785 -108.430098 44 37271ft 504kts
29-Aug-20 10:17 37.239201 -108.301800 45 37270ft 504kts
29-Aug-20 10:18 37.332812 -108.170721 45 37277ft 504kts
29-Aug-20 10:19 37.426135 -108.039903 45 37301ft 504kts
29-Aug-20 10:20 37.519717 -107.908207 45 37359ft 504kts
29-Aug-20 10:21 37.613020 -107.776348 45 37468ft 504kts
29-Aug-20 10:22 37.706166 -107.644167 45 37506ft 503kts
29-Aug-20 10:23 37.798784 -107.512190 45 37518ft 503kts
29-Aug-20 10:24 37.891386 -107.379680 45 37518ft 503kts
29-Aug-20 10:25 37.984112 -107.246071 46 37517ft 503kts
29-Aug-20 10:26 38.076466 -107.112760 45 37468ft 504kts
29-Aug-20 10:27 38.168836 -106.978717 47 37444ft 504kts
29-Aug-20 10:28 38.258618 -106.842156 47 37441ft 503kts
29-Aug-20 10:29 38.348213 -106.705382 48 37442ft 502kts
29-Aug-20 10:30 38.437325 -106.568960 48 37439ft 502kts
29-Aug-20 10:31 38.526702 -106.431485 48 37436ft 502kts
29-Aug-20 10:32 38.615599 -106.293884 48 37417ft 502kts
29-Aug-20 10:33 38.704750 -106.156558 48 37366ft 497kts
29-Aug-20 10:34 38.793491 -106.020862 48 34605ft 500kts
29-Aug-20 10:35 38.882242 -105.883396 49 32258ft 486kts
29-Aug-20 10:36 38.964823 -105.753497 48 30420ft 469kts
29-Aug-20 10:37 39.046309 -105.625123 48 28391ft 457kts
29-Aug-20 10:38 39.125164 -105.500607 48 26641ft 428kts
29-Aug-20 10:39 39.198230 -105.390620 47 23863ft 393kts
29-Aug-20 10:40 39.264919 -105.284578 49 20759ft 370kts
29-Aug-20 10:41 39.339925 -105.201172 32 18377ft 346kts
29-Aug-20 10:42 39.417578 -105.129419 33 16482ft 336kts
29-Aug-20 10:43 39.492237 -105.060248 33 15042ft 320kts
29-Aug-20 10:44 39.563069 -104.995295 34 13663ft 308kts
29-Aug-20 10:45 39.632025 -104.931777 34 12197ft 299kts
29-Aug-20 10:46 39.699807 -104.869150 34 12786ft 306kts
29-Aug-20 10:47 39.778724 -104.840401 357 12907ft 297kts
29-Aug-20 10:48 39.860942 -104.840253 358 11371ft 292kts
29-Aug-20 10:49 39.940807 -104.839574 358 9995ft 282kts
29-Aug-20 10:50 40.017711 -104.839444 358 8612ft 273kts
29-Aug-20 10:51 40.092956 -104.840103 358 8003ft 270kts
29-Aug-20 10:52 40.168013 -104.840935 358 8000ft 269kts
29-Aug-20 10:53 40.241314 -104.831287 36 7999ft 272kts
29-Aug-20 10:54 40.241622 -104.745681 136 8010ft 267kts
29-Aug-20 10:55 40.187604 -104.681639 154 7975ft 242kts
29-Aug-20 10:56 40.123369 -104.683974 179 7995ft 234kts
29-Aug-20 10:57 40.057892 -104.684905 180 7991ft 239kts
29-Aug-20 10:58 39.998771 -104.685617 180 7439ft 185kts
29-Aug-20 11:00 39.952534 -104.686166 180 6554ft 158kts
29-Aug-20 11:01 39.909055 -104.686627 180 5721ft 156kts
29-Aug-20 11:02 39.879623 -104.686975 176 5443ft 55kts
29-Aug-20 11:03 39.870362 -104.684986 179 5443ft 27kts
29-Aug-20 11:04 39.864264 -104.682942 92 5443ft 21kts
29-Aug-20 11:05 39.860707 -104.681178 87 5443ft 11kts
29-Aug-20 11:06 39.859386 -104.679471 180 5443ft 0kts
29-Aug-20 11:07 39.859386 -104.679471 180 5443ft 0kts
29-Aug-20 11:08 39.859386 -104.679471 180 5443ft 0kts
29-Aug-20 11:09 39.859386 -104.679471 180 5443ft 0kts
29-Aug-20 11:10 39.859386 -104.679471 180 5443ft 0kts
29-Aug-20 11:11 39.859386 -104.679471 180 5443ft 0kts

Navigation Log

Ident Type
Flight plan parsing failed, navigation log unavailable